createdAt,value
2022-09-04T00:00:03.414Z,99.90
2022-09-04T00:03:07.279Z,99.90
2022-09-04T00:05:47.438Z,99.90
2022-09-04T00:08:48.152Z,99.90
2022-09-04T00:12:04.267Z,99.90
2022-09-04T00:14:48.665Z,99.90
2022-09-04T00:17:44.442Z,99.90
2022-09-04T00:20:38.914Z,99.90
2022-09-04T00:23:32.322Z,99.90
2022-09-04T00:26:25.079Z,99.90
2022-09-04T00:29:10.107Z,99.90
2022-09-04T00:31:48.211Z,99.90
2022-09-04T00:34:38.473Z,99.90
2022-09-04T00:37:11.914Z,99.90
2022-09-04T00:40:09.765Z,99.90
2022-09-04T00:42:48.879Z,99.90
2022-09-04T00:45:53.789Z,99.90
2022-09-04T00:49:05.006Z,99.90
2022-09-04T00:52:36.373Z,99.90
2022-09-04T00:55:50.790Z,99.90
2022-09-04T00:58:47.118Z,99.90
2022-09-04T01:01:23.392Z,99.90
2022-09-04T01:04:43.067Z,99.90
2022-09-04T01:07:55.413Z,99.90
2022-09-04T01:11:04.726Z,99.90
2022-09-04T01:13:45.196Z,99.90
2022-09-04T01:16:39.410Z,99.90
2022-09-04T01:19:47.586Z,99.90
2022-09-04T01:22:33.925Z,99.90
2022-09-04T01:26:00.995Z,99.90
2022-09-04T01:28:40.548Z,99.90
2022-09-04T01:31:58.416Z,99.90
2022-09-04T01:34:50.532Z,99.90
2022-09-04T01:38:33.553Z,99.90
2022-09-04T01:41:10.206Z,99.90
2022-09-04T01:43:37.147Z,99.90
2022-09-04T01:46:28.102Z,99.90
2022-09-04T01:49:12.183Z,99.90
2022-09-04T01:51:52.676Z,99.90
2022-09-04T01:54:56.647Z,99.90
2022-09-04T01:58:01.195Z,99.90
2022-09-04T02:04:02.888Z,99.90
2022-09-04T02:06:59.346Z,99.90
2022-09-04T02:09:46.012Z,99.90
2022-09-04T02:12:21.154Z,99.90
2022-09-04T02:16:14.273Z,99.90
2022-09-04T02:19:04.716Z,99.90
2022-09-04T02:21:39.858Z,99.90
2022-09-04T02:25:02.210Z,99.90
2022-09-04T02:50:17.112Z,99.90
2022-09-04T02:53:29.730Z,99.90
2022-09-04T02:56:46.126Z,99.90
2022-09-04T02:59:55.357Z,99.90
2022-09-04T03:03:02.631Z,99.90
2022-09-04T03:05:49.817Z,99.90
2022-09-04T03:08:34.418Z,99.90
2022-09-04T03:11:17.024Z,99.90
2022-09-04T03:13:50.822Z,99.90
2022-09-04T03:16:17.670Z,99.90
2022-09-04T03:19:16.473Z,99.90
2022-09-04T03:22:21.698Z,99.90
2022-09-04T03:25:21.879Z,99.90
2022-09-04T03:27:49.032Z,99.90
2022-09-04T03:30:16.912Z,99.90
2022-09-04T03:33:03.657Z,99.90
2022-09-04T03:36:03.135Z,99.90
2022-09-04T03:39:04.305Z,99.90
2022-09-04T03:42:07.902Z,99.90
2022-09-04T03:45:01.154Z,99.90
2022-09-04T03:47:57.589Z,99.90
2022-09-04T03:50:39.820Z,99.90
2022-09-04T03:53:45.489Z,99.90
2022-09-04T03:56:27.366Z,99.90
2022-09-04T03:59:37.263Z,99.90
2022-09-04T04:02:24.106Z,99.90
2022-09-04T04:05:23.521Z,99.90
2022-09-04T04:08:56.555Z,99.90
2022-09-04T04:11:31.744Z,99.90
2022-09-04T04:14:42.267Z,99.90
2022-09-04T04:18:00.054Z,99.90
2022-09-04T04:20:44.529Z,99.90
2022-09-04T04:23:56.395Z,99.90
2022-09-04T04:26:40.395Z,99.90
2022-09-04T04:29:40.631Z,99.90
2022-09-04T04:32:24.234Z,99.90
2022-09-04T04:35:27.486Z,99.90
2022-09-04T04:38:02.579Z,99.90
2022-09-04T04:41:06.459Z,99.90
2022-09-04T04:44:15.341Z,99.90
2022-09-04T04:47:15.582Z,99.90
2022-09-04T04:50:05.881Z,99.90
2022-09-04T04:53:14.463Z,99.90
2022-09-04T04:56:24.219Z,99.90
2022-09-04T04:59:08.071Z,99.90
2022-09-04T05:01:56.125Z,99.90
2022-09-04T05:04:42.501Z,99.90
2022-09-04T05:07:38.062Z,99.90
2022-09-04T05:10:47.518Z,99.90
2022-09-04T05:13:42.221Z,99.90
2022-09-04T05:16:25.397Z,99.90
2022-09-04T05:19:21.599Z,99.90
2022-09-04T05:22:22.987Z,99.90
2022-09-04T05:25:14.374Z,99.90
2022-09-04T05:28:01.815Z,99.90
2022-09-04T05:31:07.289Z,99.90
2022-09-04T05:34:14.182Z,99.90
2022-09-04T05:37:11.663Z,99.90
2022-09-04T05:39:47.411Z,99.90
2022-09-04T05:42:48.079Z,99.90
2022-09-04T05:45:37.189Z,99.90
2022-09-04T05:48:32.511Z,99.90
2022-09-04T05:51:24.455Z,99.90
2022-09-04T05:54:35.990Z,99.90
2022-09-04T05:57:44.210Z,99.90
2022-09-04T06:00:19.199Z,99.90
2022-09-04T06:03:30.090Z,99.90
2022-09-04T06:06:20.310Z,99.90
2022-09-04T06:09:14.414Z,99.90
2022-09-04T06:12:50.750Z,99.90
2022-09-04T06:16:17.808Z,99.90
2022-09-04T06:19:05.790Z,99.90
2022-09-04T06:22:10.064Z,99.90
2022-09-04T06:24:49.751Z,99.90
2022-09-04T06:27:57.841Z,99.90
2022-09-04T06:30:36.037Z,99.90
2022-09-04T06:33:44.307Z,99.90
2022-09-04T06:36:16.675Z,99.90
2022-09-04T06:38:52.808Z,99.90
2022-09-04T06:41:38.104Z,99.90
2022-09-04T06:44:26.879Z,99.90
2022-09-04T06:47:14.482Z,99.90
2022-09-04T06:49:59.351Z,99.90
2022-09-04T06:53:09.023Z,99.90
2022-09-04T06:55:53.543Z,99.90
2022-09-04T06:58:28.491Z,99.90
2022-09-04T07:01:34.490Z,99.90
2022-09-04T07:04:10.322Z,99.90
2022-09-04T07:07:16.148Z,99.90
2022-09-04T07:10:10.479Z,99.90
2022-09-04T07:12:54.994Z,99.90
2022-09-04T07:16:09.748Z,99.90
2022-09-04T07:19:32.887Z,99.90
2022-09-04T07:22:20.826Z,99.90
2022-09-04T07:24:50.208Z,99.90
2022-09-04T07:28:06.352Z,99.90
2022-09-04T07:31:01.062Z,99.90
2022-09-04T07:33:50.644Z,99.90
2022-09-04T07:36:45.249Z,99.90
2022-09-04T07:39:54.188Z,99.90
2022-09-04T07:42:42.160Z,99.90
2022-09-04T07:45:34.394Z,99.90
2022-09-04T07:49:10.024Z,99.90
2022-09-04T07:52:01.710Z,99.90
2022-09-04T07:55:01.790Z,99.90
2022-09-04T07:58:14.034Z,99.90
2022-09-04T08:01:14.845Z,99.90
2022-09-04T08:04:16.806Z,99.90
2022-09-04T08:06:52.285Z,99.90
2022-09-04T08:10:14.761Z,99.90
2022-09-04T08:12:56.677Z,99.90
2022-09-04T08:16:04.676Z,99.90
2022-09-04T08:19:15.771Z,99.90
2022-09-04T08:21:46.579Z,99.90
2022-09-04T08:24:43.481Z,99.90
2022-09-04T08:27:44.847Z,99.90
2022-09-04T08:30:17.010Z,99.90
2022-09-04T08:33:27.368Z,99.90
2022-09-04T08:36:06.835Z,99.90
2022-09-04T08:39:13.458Z,99.90
2022-09-04T08:42:05.779Z,99.90
2022-09-04T08:45:23.003Z,99.90
2022-09-04T08:48:25.789Z,99.90
2022-09-04T08:51:37.531Z,99.90
2022-09-04T08:54:41.981Z,99.90
2022-09-04T08:57:50.456Z,99.90
2022-09-04T09:01:09.438Z,99.90
2022-09-04T09:04:15.627Z,99.90
2022-09-04T09:07:20.605Z,99.90
2022-09-04T09:10:33.888Z,99.90
2022-09-04T09:13:47.279Z,99.90
2022-09-04T09:16:42.701Z,99.90
2022-09-04T09:19:18.011Z,99.90
2022-09-04T09:21:55.079Z,99.90
2022-09-04T09:24:59.998Z,99.90
2022-09-04T09:28:07.365Z,99.90
2022-09-04T09:31:17.848Z,99.90
2022-09-04T09:34:57.197Z,99.90
2022-09-04T09:38:04.644Z,99.90
2022-09-04T09:41:17.013Z,99.90
2022-09-04T09:44:00.778Z,99.90
2022-09-04T09:47:09.515Z,99.90
2022-09-04T09:50:02.275Z,99.90
2022-09-04T09:53:09.275Z,99.90
2022-09-04T09:56:32.294Z,99.90
2022-09-04T09:59:36.167Z,99.90
2022-09-04T10:02:52.431Z,99.90
2022-09-04T10:05:51.572Z,98.00
2022-09-04T10:08:46.620Z,97.10
2022-09-04T10:12:03.728Z,95.30
2022-09-04T10:14:47.728Z,92.80
2022-09-04T10:17:59.730Z,90.90
2022-09-04T10:21:11.250Z,88.70
2022-09-04T10:24:26.836Z,90.00
2022-09-04T10:27:38.560Z,90.30
2022-09-04T10:30:20.218Z,89.70
2022-09-04T10:33:19.862Z,88.30
2022-09-04T10:36:31.142Z,83.30
2022-09-04T10:40:12.586Z,83.30
2022-09-04T10:43:19.596Z,83.90
2022-09-04T10:45:56.914Z,84.90
2022-09-04T10:49:19.868Z,81.20
2022-09-04T10:52:35.480Z,79.10
2022-09-04T10:55:22.311Z,74.60
2022-09-04T10:58:26.196Z,74.00
2022-09-04T11:01:40.574Z,71.00
2022-09-04T11:04:34.766Z,70.40
2022-09-04T11:07:28.823Z,69.80
2022-09-04T11:10:58.854Z,67.30
2022-09-04T11:13:51.533Z,67.40
2022-09-04T11:16:33.062Z,66.20
2022-09-04T11:19:41.448Z,64.50
2022-09-04T11:22:41.075Z,61.50
2022-09-04T11:25:39.558Z,60.40
2022-09-04T11:28:44.164Z,63.30
2022-09-04T11:31:44.688Z,60.40
2022-09-04T11:34:53.582Z,62.30
2022-09-04T11:37:32.781Z,59.10
2022-09-04T11:40:18.624Z,58.60
2022-09-04T11:43:05.818Z,55.90
2022-09-04T11:46:11.898Z,56.60
2022-09-04T11:49:01.613Z,57.50
2022-09-04T11:51:51.326Z,59.00
2022-09-04T11:54:43.889Z,59.70
2022-09-04T11:57:35.702Z,62.40
2022-09-04T12:00:20.059Z,58.70
2022-09-04T12:03:18.165Z,60.70
2022-09-04T12:06:24.884Z,61.20
2022-09-04T12:09:38.569Z,63.50
2022-09-04T12:12:38.035Z,60.10
2022-09-04T12:15:46.340Z,60.30
2022-09-04T12:18:55.987Z,58.60
2022-09-04T12:21:54.014Z,58.50
2022-09-04T12:24:56.029Z,58.60
2022-09-04T12:28:26.711Z,57.10
2022-09-04T12:31:51.826Z,55.60
2022-09-04T12:34:39.466Z,55.40
2022-09-04T12:37:23.247Z,54.20
2022-09-04T12:40:24.559Z,52.90
2022-09-04T12:43:08.678Z,53.20
2022-09-04T12:46:12.670Z,50.60
2022-09-04T12:48:59.095Z,50.50
2022-09-04T12:51:43.591Z,50.70
2022-09-04T12:54:26.158Z,52.80
2022-09-04T12:57:22.483Z,51.10
2022-09-04T13:00:12.377Z,50.80
2022-09-04T13:03:06.193Z,50.80
2022-09-04T13:06:12.770Z,47.60
2022-09-04T13:09:07.493Z,48.30
2022-09-04T13:11:44.262Z,48.90
2022-09-04T13:14:59.546Z,48.80
2022-09-04T13:17:44.793Z,49.00
2022-09-04T13:20:34.905Z,49.30
2022-09-04T13:23:57.171Z,47.80
2022-09-04T13:26:54.211Z,45.70
2022-09-04T13:30:02.867Z,45.70
2022-09-04T13:33:00.471Z,45.70
2022-09-04T13:35:55.277Z,46.70
2022-09-04T13:39:06.724Z,46.90
2022-09-04T13:42:10.713Z,46.20
2022-09-04T13:45:01.980Z,45.60
2022-09-04T13:47:54.112Z,45.80
2022-09-04T13:50:46.029Z,46.80
2022-09-04T13:53:40.450Z,46.80
2022-09-04T13:56:19.498Z,43.30
2022-09-04T13:58:51.378Z,44.50
2022-09-04T14:01:25.609Z,46.50
2022-09-04T14:04:02.808Z,44.90
2022-09-04T14:06:32.638Z,43.70
2022-09-04T14:09:05.541Z,43.60
2022-09-04T14:12:24.678Z,42.90
2022-09-04T14:15:30.681Z,40.40
2022-09-04T14:18:24.809Z,37.80
2022-09-04T14:21:14.759Z,34.00
2022-09-04T14:24:18.049Z,32.10
2022-09-04T14:27:13.783Z,29.50
2022-09-04T14:30:08.481Z,28.20
2022-09-04T14:33:07.634Z,26.60
2022-09-04T14:36:22.030Z,26.20
2022-09-04T14:39:06.525Z,27.10
2022-09-04T14:41:54.291Z,27.90
2022-09-04T14:44:56.355Z,30.60
2022-09-04T14:47:58.845Z,33.80
2022-09-04T14:50:31.184Z,36.10
2022-09-04T14:53:08.328Z,39.10
2022-09-04T14:55:41.473Z,40.10
2022-09-04T14:58:28.593Z,40.60
2022-09-04T15:01:03.270Z,42.20
2022-09-04T15:03:55.644Z,42.00
2022-09-04T15:07:11.909Z,42.00
2022-09-04T15:09:45.672Z,43.90
2022-09-04T15:12:24.998Z,43.80
2022-09-04T15:15:14.208Z,42.30
2022-09-04T15:17:57.158Z,40.10
2022-09-04T15:20:31.458Z,38.00
2022-09-04T15:23:22.878Z,36.50
2022-09-04T15:26:02.847Z,35.70
2022-09-04T15:28:47.508Z,35.30
2022-09-04T15:31:32.069Z,35.70
2022-09-04T15:34:07.722Z,36.60
2022-09-04T15:36:37.655Z,38.00
2022-09-04T15:39:28.874Z,39.00
2022-09-04T15:41:55.974Z,40.10
2022-09-04T15:44:45.045Z,41.30
2022-09-04T15:47:59.072Z,42.40
2022-09-04T15:50:32.431Z,43.00
2022-09-04T15:53:34.757Z,43.90
2022-09-04T15:56:15.795Z,45.20
2022-09-04T15:59:01.532Z,46.50
2022-09-04T16:01:43.093Z,47.20
2022-09-04T16:04:32.656Z,47.90
2022-09-04T16:07:54.771Z,49.20
2022-09-04T16:10:54.784Z,50.00
2022-09-04T16:13:25.035Z,50.20
2022-09-04T16:16:04.183Z,50.00
2022-09-04T16:18:52.358Z,50.70
2022-09-04T16:21:40.416Z,50.80
2022-09-04T16:24:15.196Z,51.30
2022-09-04T16:26:50.521Z,51.80
2022-09-04T16:29:50.998Z,52.10
2022-09-04T16:32:24.966Z,52.60
2022-09-04T16:35:16.446Z,54.00
2022-09-04T16:38:09.239Z,54.70
2022-09-04T16:41:15.446Z,55.10
2022-09-04T16:44:14.244Z,55.80
2022-09-04T16:47:10.434Z,57.20
2022-09-04T16:50:13.108Z,58.20
2022-09-04T16:53:20.286Z,58.10
2022-09-04T16:56:19.217Z,58.30
2022-09-04T16:59:09.925Z,58.20
2022-09-04T17:02:01.816Z,59.40
2022-09-04T17:04:41.836Z,61.00
2022-09-04T17:07:15.673Z,61.90
2022-09-04T17:09:55.831Z,62.80
2022-09-04T17:12:40.721Z,64.00
2022-09-04T17:15:31.286Z,65.90
2022-09-04T17:17:59.303Z,67.40
2022-09-04T17:21:55.216Z,68.70
2022-09-04T17:29:01.821Z,70.00
2022-09-04T17:29:09.739Z,71.30
2022-09-04T17:29:58.602Z,72.80
2022-09-04T17:34:08.471Z,74.60
2022-09-04T17:40:38.613Z,76.10
2022-09-04T17:40:50.011Z,77.90
2022-09-04T17:42:22.100Z,79.80
2022-09-04T17:45:22.088Z,81.00
2022-09-04T17:48:20.169Z,82.10
2022-09-04T17:50:58.151Z,83.40
2022-09-04T17:53:34.249Z,84.00
2022-09-04T17:56:39.291Z,84.70
2022-09-04T17:59:30.521Z,86.20
2022-09-04T18:02:33.286Z,87.90
2022-09-04T18:05:21.982Z,89.10
2022-09-04T18:08:22.567Z,90.20
2022-09-04T18:11:20.594Z,91.10
2022-09-04T18:13:55.597Z,92.40
2022-09-04T18:16:42.375Z,93.40
2022-09-04T18:19:30.018Z,94.50
2022-09-04T18:22:26.575Z,95.30
2022-09-04T18:25:17.153Z,96.10
2022-09-04T18:28:38.491Z,96.90
2022-09-04T18:37:08.476Z,97.70
2022-09-04T18:37:17.416Z,98.50
2022-09-04T18:37:47.043Z,99.60
2022-09-04T18:41:51.278Z,99.90
2022-09-04T18:50:24.013Z,99.90
2022-09-04T18:50:29.502Z,99.90
2022-09-04T18:50:34.794Z,99.90
2022-09-04T18:52:23.353Z,99.90
2022-09-04T18:55:08.952Z,99.90
2022-09-04T18:58:23.675Z,99.90
2022-09-04T19:01:09.701Z,99.90
2022-09-04T19:03:49.206Z,99.90
2022-09-04T19:06:45.986Z,99.90
2022-09-04T19:09:21.308Z,99.90
2022-09-04T19:11:57.387Z,99.90
2022-09-04T19:14:36.298Z,99.90
2022-09-04T19:17:17.993Z,99.90
2022-09-04T19:20:11.431Z,99.90
2022-09-04T19:22:51.062Z,99.90
2022-09-04T19:25:26.763Z,99.90
2022-09-04T19:28:02.189Z,99.90
2022-09-04T19:30:46.601Z,99.90
2022-09-04T19:33:48.062Z,99.90
2022-09-04T19:36:37.061Z,99.90
2022-09-04T19:45:55.827Z,99.90
2022-09-04T19:46:05.049Z,99.90
2022-09-04T19:46:15.176Z,99.90
2022-09-04T19:49:43.762Z,99.90
2022-09-04T19:53:31.575Z,99.90
2022-09-04T19:55:03.004Z,99.90
2022-09-04T19:57:53.291Z,99.90
2022-09-04T20:00:42.797Z,99.90
2022-09-04T20:03:45.242Z,99.90
2022-09-04T20:06:36.554Z,99.90
2022-09-04T20:09:13.235Z,99.90
2022-09-04T20:11:47.590Z,99.90
2022-09-04T20:14:31.507Z,99.90
2022-09-04T20:17:40.489Z,99.90
2022-09-04T20:20:23.111Z,99.90
2022-09-04T20:23:33.852Z,99.90
2022-09-04T20:26:06.688Z,99.90
2022-09-04T20:29:10.634Z,99.90
2022-09-04T20:32:00.554Z,99.90
2022-09-04T20:34:49.969Z,99.90
2022-09-04T20:37:38.172Z,99.90
2022-09-04T20:40:27.594Z,99.90
2022-09-04T20:43:03.204Z,99.90
2022-09-04T20:48:18.752Z,99.90
2022-09-04T20:52:54.033Z,99.90
2022-09-04T20:52:54.035Z,99.90
2022-09-04T20:54:55.212Z,99.90
2022-09-04T21:03:05.399Z,99.90
2022-09-04T21:03:19.146Z,99.90
2022-09-04T21:04:42.056Z,99.90
2022-09-04T21:07:34.726Z,99.90
2022-09-04T21:10:31.093Z,99.90
2022-09-04T21:13:27.318Z,99.90
2022-09-04T21:16:46.964Z,99.90
2022-09-04T21:19:37.361Z,99.90
2022-09-04T21:22:32.903Z,99.90
2022-09-04T21:25:21.422Z,99.90
2022-09-04T21:28:37.670Z,99.90
2022-09-04T21:31:19.642Z,99.90
2022-09-04T21:34:43.770Z,99.90
2022-09-04T21:37:50.017Z,99.90
2022-09-04T21:41:03.095Z,99.90
2022-09-04T21:43:56.073Z,99.90
2022-09-04T21:46:50.249Z,99.90
2022-09-04T21:50:13.391Z,99.90
2022-09-04T21:53:08.005Z,99.90
2022-09-04T22:02:30.263Z,99.90
2022-09-04T22:02:40.982Z,99.90
2022-09-04T22:02:51.442Z,99.90
2022-09-04T22:05:56.326Z,99.90
2022-09-04T22:13:27.300Z,99.90
2022-09-04T22:13:42.342Z,99.90
2022-09-04T22:15:09.141Z,99.90
2022-09-04T22:18:03.107Z,99.90
2022-09-04T22:21:05.622Z,99.90
2022-09-04T22:23:54.583Z,99.90
2022-09-04T22:26:51.575Z,99.90
2022-09-04T22:29:50.743Z,99.90
2022-09-04T22:32:55.118Z,99.90
2022-09-04T22:35:43.430Z,99.90
2022-09-04T22:38:31.618Z,99.90
2022-09-04T22:41:34.507Z,99.90
2022-09-04T22:44:50.250Z,99.90
2022-09-04T22:47:56.603Z,99.90
2022-09-04T22:51:00.764Z,99.90
2022-09-04T22:53:54.685Z,99.90
2022-09-04T22:56:33.543Z,99.90
2022-09-04T22:59:26.765Z,99.90
2022-09-04T23:02:54.125Z,99.90
2022-09-04T23:05:28.351Z,99.90
2022-09-04T23:13:22.067Z,99.90
2022-09-04T23:13:57.503Z,99.90
2022-09-04T23:15:08.224Z,99.90
2022-09-04T23:24:10.078Z,99.90
2022-09-04T23:26:33.954Z,99.90
2022-09-04T23:26:59.978Z,99.90
2022-09-04T23:27:46.034Z,99.90
2022-09-04T23:30:25.228Z,99.90
2022-09-04T23:33:35.091Z,99.90
2022-09-04T23:36:28.537Z,99.90
2022-09-04T23:39:42.273Z,99.90
2022-09-04T23:42:45.165Z,99.90
2022-09-04T23:45:52.803Z,99.90
2022-09-04T23:48:54.055Z,99.90
2022-09-04T23:51:32.846Z,99.90
2022-09-04T23:54:25.427Z,99.90
2022-09-04T23:57:29.529Z,99.90
2022-09-04T23:59:59.115Z,99.90
